Time;durP1;ratioP1;P1;durP2;ratioP2;P2;SDS_P1;SDS_P2;PMS_P1;PMS_P2;Temp;Humidity;BMP_temperature;BMP_pressure;BME280_temperature;BME280_humidity;BME280_pressure;Samples;Min_cycle;Max_cycle;Signal;HPM_P1;HPM_P2
2021/01/30 00:06:55;;;;;;;17.83;15.15;;;;;;;;;;4231046;28;20454;-55
2021/01/30 00:09:22;;;;;;;21.98;15.40;;;;;;;;;;4206424;34;20362;-56
2021/01/30 00:11:53;;;;;;;17.42;14.63;;;;;;;;;;4206369;34;20121;-57
2021/01/30 00:14:29;;;;;;;20.12;14.90;;;;;;;;;;4206311;34;20224;-55
2021/01/30 00:16:55;;;;;;;15.57;13.23;;;;;;;;;;4206146;34;20102;-56
2021/01/30 00:19:21;;;;;;;16.27;13.77;;;;;;;;;;4193109;34;20150;-56
2021/01/30 00:21:55;;;;;;;16.27;13.62;;;;;;;;;;4206189;34;20116;-56
2021/01/30 00:24:21;;;;;;;17.23;14.00;;;;;;;;;;4205993;34;20252;-56
2021/01/30 00:26:56;;;;;;;20.62;15.10;;;;;;;;;;4206193;34;20114;-56
2021/01/30 00:29:23;;;;;;;17.83;14.77;;;;;;;;;;4205967;34;20541;-56
2021/01/30 00:31:49;;;;;;;15.65;13.27;;;;;;;;;;4206072;34;20093;-56
2021/01/30 00:34:16;;;;;;;19.58;15.23;;;;;;;;;;4205873;34;20098;-56
2021/01/30 00:36:41;;;;;;;17.17;14.18;;;;;;;;;;4205922;34;20530;-57
2021/01/30 00:39:07;;;;;;;19.17;14.35;;;;;;;;;;4206175;34;20137;-56
2021/01/30 00:41:33;;;;;;;19.33;15.73;;;;;;;;;;4206031;34;20117;-54
2021/01/30 00:43:59;;;;;;;20.62;14.98;;;;;;;;;;4205861;34;20136;-55
2021/01/30 00:46:26;;;;;;;16.52;13.57;;;;;;;;;;4205101;34;20125;-55
2021/01/30 00:48:52;;;;;;;17.12;13.43;;;;;;;;;;4205860;34;20454;-54
2021/01/30 00:51:21;;;;;;;15.82;13.38;;;;;;;;;;4205683;34;20225;-55
2021/01/30 00:53:47;;;;;;;17.15;15.10;;;;;;;;;;4205731;34;20132;-56
2021/01/30 00:56:13;;;;;;;16.05;13.50;;;;;;;;;;4205871;34;20137;-56
2021/01/30 00:58:39;;;;;;;17.00;14.02;;;;;;;;;;4205984;34;20125;-57
2021/01/30 01:01:05;;;;;;;16.17;13.90;;;;;;;;;;4205549;34;20169;-56
2021/01/30 01:03:31;;;;;;;15.93;13.50;;;;;;;;;;4205902;34;20108;-55
2021/01/30 01:05:57;;;;;;;17.62;13.93;;;;;;;;;;4205400;34;20141;-55
2021/01/30 01:08:23;;;;;;;17.58;14.15;;;;;;;;;;4205909;34;20210;-54
2021/01/30 01:10:49;;;;;;;15.27;13.25;;;;;;;;;;4205579;34;20105;-56
2021/01/30 01:13:15;;;;;;;17.60;14.05;;;;;;;;;;4205597;34;20125;-54
2021/01/30 01:15:41;;;;;;;18.75;15.88;;;;;;;;;;4205501;34;20125;-53
2021/01/30 01:18:07;;;;;;;19.05;14.68;;;;;;;;;;4205850;34;20189;-51
2021/01/30 01:20:33;;;;;;;19.27;15.50;;;;;;;;;;4205782;34;20137;-55
2021/01/30 01:22:58;;;;;;;18.75;14.73;;;;;;;;;;4205779;34;20136;-53
2021/01/30 01:25:24;;;;;;;18.62;15.38;;;;;;;;;;4205385;34;20155;-56
2021/01/30 01:27:50;;;;;;;17.12;14.38;;;;;;;;;;4205566;34;20209;-57
2021/01/30 01:30:17;;;;;;;16.25;14.48;;;;;;;;;;4205379;34;20210;-57
2021/01/30 01:32:43;;;;;;;16.87;13.57;;;;;;;;;;4192775;34;20109;-54
2021/01/30 01:35:31;;;;;;;17.05;13.48;;;;;;;;;;4205358;34;20144;-55
2021/01/30 01:37:57;;;;;;;13.55;12.15;;;;;;;;;;4205464;34;20193;-56
2021/01/30 01:40:26;;;;;;;18.00;12.57;;;;;;;;;;4205307;34;20135;-56
2021/01/30 01:42:59;;;;;;;14.85;13.25;;;;;;;;;;4205437;34;20184;-56
2021/01/30 01:45:25;;;;;;;14.23;12.73;;;;;;;;;;4205220;34;20110;-53
2021/01/30 01:47:51;;;;;;;16.12;12.65;;;;;;;;;;4205578;34;20293;-53
2021/01/30 01:50:32;;;;;;;14.52;12.20;;;;;;;;;;4205280;34;20155;-55
2021/01/30 01:53:02;;;;;;;14.00;12.30;;;;;;;;;;4205234;34;20153;-55
2021/01/30 01:55:28;;;;;;;13.50;11.23;;;;;;;;;;4181492;34;20538;-57
2021/01/30 01:57:54;;;;;;;16.65;14.93;;;;;;;;;;4180949;34;20118;-53
2021/01/30 02:00:21;;;;;;;14.23;12.73;;;;;;;;;;4205135;34;20554;-56
2021/01/30 02:02:48;;;;;;;12.98;11.57;;;;;;;;;;4192503;34;20469;-53
2021/01/30 02:05:27;;;;;;;12.25;10.80;;;;;;;;;;4192238;34;20184;-55
2021/01/30 02:07:55;;;;;;;12.90;11.52;;;;;;;;;;4205171;34;20144;-57
2021/01/30 02:10:24;;;;;;;14.10;12.35;;;;;;;;;;4192337;34;20133;-57
2021/01/30 02:12:50;;;;;;;12.85;11.38;;;;;;;;;;4205075;34;20124;-56
2021/01/30 02:15:17;;;;;;;12.63;10.77;;;;;;;;;;4192309;34;20431;-54
2021/01/30 02:17:48;;;;;;;12.70;11.40;;;;;;;;;;4205097;34;20090;-56
2021/01/30 02:20:48;;;;;;;12.73;11.43;;;;;;;;;;4205018;34;20106;-56
2021/01/30 02:23:46;;;;;;;13.18;11.77;;;;;;;;;;4205145;34;20108;-56
2021/01/30 02:26:11;;;;;;;14.50;12.30;;;;;;;;;;4193995;34;20148;-55
2021/01/30 02:29:05;;;;;;;12.52;11.23;;;;;;;;;;4205048;34;20114;-54
2021/01/30 02:32:17;;;;;;;14.63;13.13;;;;;;;;;;4204908;34;20524;-53
2021/01/30 02:35:04;;;;;;;14.32;12.18;;;;;;;;;;4191864;34;20120;-55
2021/01/30 02:37:36;;;;;;;16.12;14.43;;;;;;;;;;4182273;34;20145;-56
2021/01/30 02:40:08;;;;;;;13.43;12.02;;;;;;;;;;4181029;34;20478;-54
2021/01/30 02:42:42;;;;;;;13.57;12.18;;;;;;;;;;4180972;34;20113;-53
2021/01/30 02:45:11;;;;;;;12.77;11.00;;;;;;;;;;4182086;34;20102;-54
2021/01/30 02:47:39;;;;;;;13.60;11.52;;;;;;;;;;4192169;34;20556;-56
2021/01/30 02:50:12;;;;;;;13.95;11.55;;;;;;;;;;4180553;34;20563;-56
2021/01/30 02:52:38;;;;;;;12.15;10.85;;;;;;;;;;4191899;34;20093;-54
2021/01/30 02:55:06;;;;;;;12.35;11.05;;;;;;;;;;4180401;34;20137;-56
2021/01/30 02:57:31;;;;;;;12.88;11.25;;;;;;;;;;4192252;34;20217;-56
2021/01/30 02:59:59;;;;;;;12.13;10.65;;;;;;;;;;4191962;34;20133;-56
2021/01/30 03:02:25;;;;;;;12.10;10.88;;;;;;;;;;4180497;34;20098;-55
2021/01/30 03:04:52;;;;;;;11.12;10.02;;;;;;;;;;4204568;34;20461;-56
2021/01/30 03:07:36;;;;;;;10.77;9.20;;;;;;;;;;4180503;34;20171;-56
2021/01/30 03:10:16;;;;;;;11.05;9.95;;;;;;;;;;4204128;34;20565;-53
2021/01/30 03:12:56;;;;;;;11.12;9.75;;;;;;;;;;4192310;34;20125;-54
2021/01/30 03:15:33;;;;;;;11.02;9.82;;;;;;;;;;4192342;34;20110;-56
2021/01/30 03:17:59;;;;;;;10.60;9.50;;;;;;;;;;4191636;34;20109;-54
2021/01/30 03:20:25;;;;;;;9.88;8.88;;;;;;;;;;4180436;34;20471;-56
2021/01/30 03:22:51;;;;;;;9.38;8.27;;;;;;;;;;4192040;34;20182;-55
2021/01/30 03:25:22;;;;;;;9.35;8.35;;;;;;;;;;4191788;34;20133;-55
2021/01/30 03:27:48;;;;;;;8.45;7.65;;;;;;;;;;4180198;34;20089;-55
2021/01/30 03:30:14;;;;;;;8.38;7.57;;;;;;;;;;4191365;34;20117;-55
2021/01/30 03:32:40;;;;;;;8.82;8.00;;;;;;;;;;4204445;34;20110;-56
2021/01/30 03:35:08;;;;;;;9.43;8.52;;;;;;;;;;4204320;34;20443;-56
2021/01/30 03:37:35;;;;;;;9.55;8.55;;;;;;;;;;4204228;34;20437;-55
2021/01/30 03:40:05;;;;;;;9.25;8.35;;;;;;;;;;4204192;34;20113;-55
2021/01/30 03:42:31;;;;;;;9.38;8.43;;;;;;;;;;4204458;34;20213;-53
2021/01/30 03:44:57;;;;;;;9.20;8.18;;;;;;;;;;4191429;34;20125;-53
2021/01/30 03:47:23;;;;;;;8.65;7.85;;;;;;;;;;4204025;34;20121;-54
2021/01/30 03:49:49;;;;;;;9.07;8.18;;;;;;;;;;4204012;34;20117;-55
2021/01/30 03:52:35;;;;;;;8.05;7.35;;;;;;;;;;4204002;34;20105;-55
2021/01/30 03:55:01;;;;;;;8.52;7.72;;;;;;;;;;4204491;34;20200;-57
2021/01/30 03:57:27;;;;;;;7.95;7.15;;;;;;;;;;4179698;34;20093;-57
2021/01/30 03:59:53;;;;;;;8.50;7.70;;;;;;;;;;4203986;34;20225;-54
2021/01/30 04:02:19;;;;;;;14.57;8.25;;;;;;;;;;4204040;34;20634;-56
2021/01/30 04:04:45;;;;;;;8.80;7.90;;;;;;;;;;4203383;34;20129;-57
2021/01/30 04:07:11;;;;;;;8.63;7.78;;;;;;;;;;4204057;34;20195;-58
2021/01/30 04:09:37;;;;;;;8.40;7.55;;;;;;;;;;4203994;34;20209;-58
2021/01/30 04:12:04;;;;;;;7.87;7.18;;;;;;;;;;4204173;34;20581;-56
2021/01/30 04:14:30;;;;;;;8.32;7.45;;;;;;;;;;4203837;34;20210;-57
2021/01/30 04:16:56;;;;;;;9.75;7.45;;;;;;;;;;4203842;34;20192;-53
2021/01/30 04:19:21;;;;;;;9.10;8.20;;;;;;;;;;4203628;34;20622;-57
2021/01/30 04:21:47;;;;;;;8.63;7.82;;;;;;;;;;4205345;34;20538;-54
2021/01/30 04:24:13;;;;;;;9.27;8.27;;;;;;;;;;4206017;34;20533;-54
2021/01/30 04:26:39;;;;;;;9.65;8.75;;;;;;;;;;4206144;34;20117;-57
2021/01/30 04:29:05;;;;;;;10.15;9.15;;;;;;;;;;4192941;34;20125;-54
2021/01/30 04:31:31;;;;;;;9.98;8.98;;;;;;;;;;4206057;34;20203;-54
2021/01/30 04:33:57;;;;;;;9.25;8.40;;;;;;;;;;4206111;34;20202;-53
2021/01/30 04:36:23;;;;;;;9.68;8.77;;;;;;;;;;4206164;34;20125;-55
2021/01/30 04:38:49;;;;;;;9.75;8.75;;;;;;;;;;4206118;34;20150;-55
2021/01/30 04:41:19;;;;;;;9.95;9.00;;;;;;;;;;4205788;34;20576;-53
2021/01/30 04:43:52;;;;;;;10.77;9.75;;;;;;;;;;4205915;34;20118;-54
2021/01/30 04:46:34;;;;;;;11.30;10.20;;;;;;;;;;4193102;34;20209;-53
2021/01/30 04:49:12;;;;;;;11.02;9.38;;;;;;;;;;4193305;34;20110;-53
2021/01/30 04:51:50;;;;;;;10.73;9.73;;;;;;;;;;4193419;34;20122;-53
2021/01/30 04:54:53;;;;;;;10.65;9.57;;;;;;;;;;4205638;34;20133;-55
2021/01/30 04:57:50;;;;;;;10.90;9.80;;;;;;;;;;4192601;34;20094;-54
2021/01/30 05:00:30;;;;;;;10.88;9.77;;;;;;;;;;4194763;34;20129;-58
2021/01/30 05:03:34;;;;;;;10.88;8.55;;;;;;;;;;4193711;34;20474;-57
2021/01/30 05:06:04;;;;;;;9.38;8.38;;;;;;;;;;4171401;34;20430;-56
2021/01/30 05:08:37;;;;;;;9.55;8.65;;;;;;;;;;4193078;34;20097;-54
2021/01/30 05:11:05;;;;;;;9.57;8.07;;;;;;;;;;4181555;34;20134;-53
2021/01/30 05:13:40;;;;;;;8.65;7.82;;;;;;;;;;4181158;34;20101;-51
2021/01/30 05:16:19;;;;;;;10.57;9.48;;;;;;;;;;4192593;34;20117;-53
2021/01/30 05:18:49;;;;;;;8.52;7.72;;;;;;;;;;4181567;34;20173;-55
2021/01/30 05:21:42;;;;;;;7.95;7.15;;;;;;;;;;4181556;34;20213;-57
2021/01/30 05:24:11;;;;;;;8.50;7.70;;;;;;;;;;4203192;34;20121;-57
2021/01/30 05:26:56;;;;;;;9.82;8.13;;;;;;;;;;4205364;34;20416;-54
2021/01/30 05:29:43;;;;;;;9.02;8.13;;;;;;;;;;4205245;34;20118;-52
2021/01/30 05:32:13;;;;;;;10.38;9.30;;;;;;;;;;4204853;34;20121;-53
2021/01/30 05:34:54;;;;;;;11.52;10.32;;;;;;;;;;4180876;34;20110;-55
2021/01/30 05:37:24;;;;;;;10.88;9.77;;;;;;;;;;4181383;34;20141;-53
2021/01/30 05:40:11;;;;;;;15.38;13.77;;;;;;;;;;4192558;34;20142;-53
2021/01/30 05:43:01;;;;;;;22.08;19.40;;;;;;;;;;4205495;34;20090;-55
2021/01/30 05:45:36;;;;;;;18.50;16.52;;;;;;;;;;4205061;34;20102;-55
2021/01/30 05:48:02;;;;;;;15.00;13.60;;;;;;;;;;4205224;34;20151;-54
2021/01/30 05:50:39;;;;;;;13.13;11.93;;;;;;;;;;4204948;34;20529;-55
2021/01/30 05:53:05;;;;;;;17.58;15.90;;;;;;;;;;4181129;34;20130;-56
2021/01/30 05:55:33;;;;;;;15.30;13.80;;;;;;;;;;4191965;34;20110;-56
2021/01/30 05:58:07;;;;;;;12.77;11.52;;;;;;;;;;4204936;34;20109;-57
2021/01/30 06:00:33;;;;;;;12.43;11.23;;;;;;;;;;4192618;34;20241;-58
2021/01/30 06:03:22;;;;;;;12.48;11.27;;;;;;;;;;4205139;34;20625;-58
2021/01/30 06:05:52;;;;;;;10.65;8.70;;;;;;;;;;4192344;34;20522;-59
2021/01/30 06:08:19;;;;;;;9.50;8.60;;;;;;;;;;4192151;34;20132;-59
2021/01/30 06:10:47;;;;;;;9.70;8.70;;;;;;;;;;4204991;34;20102;-58
2021/01/30 06:13:20;;;;;;;9.98;9.07;;;;;;;;;;4192089;34;20133;-59
2021/01/30 06:15:48;;;;;;;10.45;9.40;;;;;;;;;;4192340;34;20122;-60
2021/01/30 06:18:16;;;;;;;9.60;8.70;;;;;;;;;;4192156;34;20125;-59
2021/01/30 06:20:42;;;;;;;9.15;8.25;;;;;;;;;;4204826;34;20114;-56
2021/01/30 06:23:09;;;;;;;10.05;9.15;;;;;;;;;;4180589;34;20490;-56
2021/01/30 06:25:40;;;;;;;10.23;9.00;;;;;;;;;;4204903;34;20125;-55
2021/01/30 06:28:18;;;;;;;9.98;8.98;;;;;;;;;;4205044;34;20094;-57
2021/01/30 06:30:45;;;;;;;9.27;8.30;;;;;;;;;;4192284;34;20094;-56
2021/01/30 06:33:30;;;;;;;9.63;8.73;;;;;;;;;;4205012;34;20086;-57
2021/01/30 06:36:14;;;;;;;9.93;8.60;;;;;;;;;;4192177;34;20113;-57
2021/01/30 06:38:52;;;;;;;10.75;9.65;;;;;;;;;;4192175;34;20098;-55
2021/01/30 06:41:26;;;;;;;9.95;8.90;;;;;;;;;;4192090;34;20109;-55
2021/01/30 06:43:57;;;;;;;10.68;9.23;;;;;;;;;;4204042;34;20462;-56
2021/01/30 06:46:24;;;;;;;11.10;9.98;;;;;;;;;;4204442;34;20117;-56
2021/01/30 06:48:54;;;;;;;14.45;13.05;;;;;;;;;;4204599;34;20122;-57
2021/01/30 06:51:35;;;;;;;10.05;9.05;;;;;;;;;;4204534;34;20137;-56
2021/01/30 06:54:22;;;;;;;9.07;6.62;;;;;;;;;;4192379;34;20190;-56
2021/01/30 06:56:59;;;;;;;8.27;7.28;;;;;;;;;;4204581;34;20655;-56
2021/01/30 06:59:30;;;;;;;7.70;6.90;;;;;;;;;;4191823;34;20442;-54
2021/01/30 07:01:56;;;;;;;7.37;6.57;;;;;;;;;;4204567;34;20254;-56
2021/01/30 07:04:25;;;;;;;7.20;6.37;;;;;;;;;;4180380;34;20126;-56
2021/01/30 07:07:00;;;;;;;7.35;6.25;;;;;;;;;;4204442;34;20118;-58
2021/01/30 07:09:56;;;;;;;7.75;6.87;;;;;;;;;;4204573;34;20082;-56
2021/01/30 07:12:52;;;;;;;7.68;6.90;;;;;;;;;;4204584;34;20106;-54
2021/01/30 07:15:31;;;;;;;7.18;6.57;;;;;;;;;;4203547;34;20110;-55
2021/01/30 07:18:16;;;;;;;6.72;6.12;;;;;;;;;;4180654;34;20546;-56
2021/01/30 07:21:21;;;;;;;7.22;6.47;;;;;;;;;;4204314;34;20116;-56
2021/01/30 07:23:58;;;;;;;6.80;6.03;;;;;;;;;;4204140;34;20106;-54
2021/01/30 07:26:54;;;;;;;8.02;7.22;;;;;;;;;;4191622;34;20132;-56
2021/01/30 07:29:28;;;;;;;9.95;6.72;;;;;;;;;;4190504;34;20117;-55
2021/01/30 07:32:01;;;;;;;7.73;6.93;;;;;;;;;;4204416;34;20129;-54
2021/01/30 07:34:30;;;;;;;8.52;6.90;;;;;;;;;;4191625;34;20201;-53
2021/01/30 07:37:23;;;;;;;9.15;8.07;;;;;;;;;;4204592;34;20205;-57
2021/01/30 07:39:55;;;;;;;8.50;7.60;;;;;;;;;;4204486;34;20141;-56
2021/01/30 07:42:42;;;;;;;11.30;8.90;;;;;;;;;;4180048;34;20152;-59
2021/01/30 07:45:13;;;;;;;12.32;8.65;;;;;;;;;;4204322;34;20147;-56
2021/01/30 07:48:06;;;;;;;13.27;8.93;;;;;;;;;;4204213;34;20105;-56
2021/01/30 07:50:34;;;;;;;9.02;7.97;;;;;;;;;;4191416;34;20103;-56
2021/01/30 07:53:15;;;;;;;9.85;8.55;;;;;;;;;;4204047;34;20451;-55
2021/01/30 07:56:16;;;;;;;10.02;7.85;;;;;;;;;;4192809;34;20593;-60
2021/01/30 07:58:48;;;;;;;9.23;7.97;;;;;;;;;;4192351;34;20109;-54
2021/01/30 08:01:55;;;;;;;9.70;7.85;;;;;;;;;;4206432;34;20118;-56
2021/01/30 08:04:51;;;;;;;9.02;7.43;;;;;;;;;;4191428;34;20810;-57
2021/01/30 08:07:23;;;;;;;7.68;6.65;;;;;;;;;;4206250;34;20517;-56
2021/01/30 08:09:59;;;;;;;8.23;6.50;;;;;;;;;;4206085;34;20102;-57
2021/01/30 08:12:38;;;;;;;9.48;6.95;;;;;;;;;;4193310;34;20113;-56
2021/01/30 08:15:50;;;;;;;8.88;6.12;;;;;;;;;;4206224;34;20106;-56
2021/01/30 08:18:37;;;;;;;9.00;5.68;;;;;;;;;;4170468;34;20185;-58
2021/01/30 08:21:06;;;;;;;6.50;5.55;;;;;;;;;;4195268;34;20145;-57
2021/01/30 08:23:53;;;;;;;6.37;5.62;;;;;;;;;;4206213;34;20094;-56
2021/01/30 08:26:30;;;;;;;7.37;5.78;;;;;;;;;;4206150;34;20147;-56
2021/01/30 08:29:05;;;;;;;12.02;6.12;;;;;;;;;;4193052;34;20602;-57
2021/01/30 08:31:37;;;;;;;6.62;5.93;;;;;;;;;;4205875;34;20541;-57
2021/01/30 08:34:11;;;;;;;9.10;5.78;;;;;;;;;;4193244;34;20105;-56
2021/01/30 08:36:39;;;;;;;9.52;6.32;;;;;;;;;;4206032;34;20165;-57
2021/01/30 08:39:32;;;;;;;6.82;5.57;;;;;;;;;;4205608;34;20110;-56
2021/01/30 08:42:05;;;;;;;10.00;6.30;;;;;;;;;;4188608;34;20274;-57
2021/01/30 08:44:34;;;;;;;7.57;6.00;;;;;;;;;;4205400;34;20529;-57
2021/01/30 08:47:18;;;;;;;6.72;5.62;;;;;;;;;;4205642;34;20273;-58
2021/01/30 08:50:03;;;;;;;6.40;5.53;;;;;;;;;;4193055;34;20121;-56
2021/01/30 08:52:40;;;;;;;7.10;5.68;;;;;;;;;;4205513;34;20478;-56
2021/01/30 08:55:23;;;;;;;7.18;6.07;;;;;;;;;;4205755;34;20124;-56
2021/01/30 08:57:49;;;;;;;7.60;6.18;;;;;;;;;;4205608;34;20225;-56
2021/01/30 09:00:27;;;;;;;7.20;5.72;;;;;;;;;;4205531;34;20540;-57
2021/01/30 09:03:03;;;;;;;7.57;6.78;;;;;;;;;;4205467;34;20474;-57
2021/01/30 09:05:32;;;;;;;6.87;6.12;;;;;;;;;;4205506;34;20534;-56
2021/01/30 09:07:59;;;;;;;6.37;5.32;;;;;;;;;;4205290;34;20539;-56
2021/01/30 09:10:29;;;;;;;7.57;6.30;;;;;;;;;;4192953;34;20110;-56
2021/01/30 09:13:03;;;;;;;7.00;5.87;;;;;;;;;;4205812;34;20140;-57
2021/01/30 09:15:38;;;;;;;12.45;8.63;;;;;;;;;;4205406;34;20094;-56
2021/01/30 09:18:18;;;;;;;6.55;5.30;;;;;;;;;;4205595;34;20133;-56
2021/01/30 09:21:04;;;;;;;7.30;5.32;;;;;;;;;;4205607;34;20118;-58
2021/01/30 09:24:10;;;;;;;6.10;4.82;;;;;;;;;;4184687;34;20102;-54
2021/01/30 09:26:48;;;;;;;6.82;4.60;;;;;;;;;;4205629;34;20213;-55
2021/01/30 09:29:16;;;;;;;7.50;5.12;;;;;;;;;;4205675;34;20447;-56
2021/01/30 09:31:42;;;;;;;6.95;4.25;;;;;;;;;;4181303;34;20473;-56
2021/01/30 09:34:18;;;;;;;5.37;4.50;;;;;;;;;;4205329;34;20125;-56
2021/01/30 09:36:45;;;;;;;5.97;5.00;;;;;;;;;;4192429;34;20612;-56
2021/01/30 09:40:19;;;;;;;;;;;;;;;;;;;;;
2021/01/30 09:43:23;;;;;;;6.25;4.97;;;;;;;;;;4194113;34;20205;-57
2021/01/30 09:46:27;;;;;;;7.25;4.68;;;;;;;;;;4181676;34;20210;-57
2021/01/30 09:48:53;;;;;;;4.25;3.80;;;;;;;;;;4188861;34;20125;-55
2021/01/30 09:51:19;;;;;;;5.18;3.58;;;;;;;;;;4205610;34;20100;-54
2021/01/30 09:53:57;;;;;;;6.43;4.30;;;;;;;;;;4192268;34;20171;-56
2021/01/30 09:56:28;;;;;;;5.10;3.65;;;;;;;;;;4181189;34;20567;-56
2021/01/30 09:58:59;;;;;;;6.70;4.47;;;;;;;;;;4203823;34;20626;-56
2021/01/30 10:01:26;;;;;;;5.22;4.40;;;;;;;;;;4205083;34;20447;-56
2021/01/30 10:03:53;;;;;;;7.45;5.93;;;;;;;;;;4192300;34;20152;-56
2021/01/30 10:06:26;;;;;;;7.97;5.40;;;;;;;;;;4205058;34;20105;-57
2021/01/30 10:08:52;;;;;;;6.97;5.30;;;;;;;;;;4205074;34;20152;-58
2021/01/30 10:11:19;;;;;;;8.02;6.43;;;;;;;;;;4205010;34;20561;-57
2021/01/30 10:13:49;;;;;;;6.95;5.35;;;;;;;;;;4192253;34;20110;-56
2021/01/30 10:16:19;;;;;;;4.82;4.32;;;;;;;;;;4192225;34;20144;-57
2021/01/30 10:18:52;;;;;;;4.70;4.15;;;;;;;;;;4192579;34;20520;-56
2021/01/30 10:21:48;;;;;;;5.15;4.55;;;;;;;;;;4192405;34;20098;-56
2021/01/30 10:24:17;;;;;;;4.87;4.37;;;;;;;;;;4183474;34;20142;-57
2021/01/30 10:26:43;;;;;;;6.43;4.18;;;;;;;;;;4205003;34;20466;-57
2021/01/30 10:29:11;;;;;;;5.55;3.83;;;;;;;;;;4192189;34;20122;-58
2021/01/30 10:31:45;;;;;;;6.10;4.75;;;;;;;;;;4192300;34;20106;-56
2021/01/30 10:34:19;;;;;;;6.15;4.40;;;;;;;;;;4205193;34;20124;-55
2021/01/30 10:37:10;;;;;;;6.03;4.67;;;;;;;;;;4205050;34;20206;-55
2021/01/30 10:39:37;;;;;;;5.10;4.60;;;;;;;;;;4194043;34;20175;-55
2021/01/30 10:42:22;;;;;;;4.80;4.28;;;;;;;;;;4180914;34;20201;-55
2021/01/30 10:44:49;;;;;;;9.63;6.30;;;;;;;;;;4193081;34;20109;-56
2021/01/30 10:47:15;;;;;;;5.55;5.00;;;;;;;;;;4180712;34;20133;-56
2021/01/30 10:49:41;;;;;;;5.75;4.65;;;;;;;;;;4180461;34;20137;-57
2021/01/30 10:52:14;;;;;;;6.30;4.45;;;;;;;;;;4180783;34;20619;-58
2021/01/30 10:54:41;;;;;;;6.62;5.57;;;;;;;;;;4204801;34;20102;-57
2021/01/30 10:57:10;;;;;;;5.07;4.57;;;;;;;;;;4192211;34;20122;-56
2021/01/30 10:59:59;;;;;;;9.70;5.25;;;;;;;;;;4204597;34;20188;-57
2021/01/30 11:02:42;;;;;;;6.82;4.30;;;;;;;;;;4204659;34;20129;-58
2021/01/30 11:05:12;;;;;;;5.10;4.60;;;;;;;;;;4204370;34;20124;-57
2021/01/30 11:07:43;;;;;;;5.90;5.18;;;;;;;;;;4204595;34;20113;-57
2021/01/30 11:10:32;;;;;;;9.48;8.45;;;;;;;;;;4204422;34;20124;-56
2021/01/30 11:13:10;;;;;;;7.22;6.53;;;;;;;;;;4204537;34;20209;-57
2021/01/30 11:15:41;;;;;;;6.70;5.53;;;;;;;;;;4180300;34;20201;-57
2021/01/30 11:18:26;;;;;;;5.57;5.05;;;;;;;;;;4192182;34;20583;-57
2021/01/30 11:20:52;;;;;;;8.20;7.03;;;;;;;;;;4204351;34;20598;-57
2021/01/30 11:23:36;;;;;;;7.68;6.25;;;;;;;;;;4204373;34;20098;-57
2021/01/30 11:26:17;;;;;;;8.02;5.57;;;;;;;;;;4204737;34;20110;-59
2021/01/30 11:28:43;;;;;;;9.13;8.23;;;;;;;;;;4204344;34;20130;-57
2021/01/30 11:31:10;;;;;;;10.32;9.10;;;;;;;;;;4206250;34;20122;-57
2021/01/30 11:33:36;;;;;;;8.05;7.20;;;;;;;;;;4182474;34;20519;-56
2021/01/30 11:36:03;;;;;;;8.23;6.03;;;;;;;;;;4193926;34;20109;-57
2021/01/30 11:38:29;;;;;;;7.62;6.55;;;;;;;;;;4206437;34;20110;-58
2021/01/30 11:40:56;;;;;;;8.93;6.18;;;;;;;;;;4206383;34;20125;-56
2021/01/30 11:43:22;;;;;;;7.78;6.97;;;;;;;;;;4206390;34;20514;-56
2021/01/30 11:45:48;;;;;;;8.07;7.03;;;;;;;;;;4206278;34;20120;-57
2021/01/30 11:48:15;;;;;;;7.40;6.50;;;;;;;;;;4206339;34;20109;-57
2021/01/30 11:50:42;;;;;;;7.90;6.40;;;;;;;;;;4206322;34;20106;-57
2021/01/30 11:53:16;;;;;;;6.55;5.57;;;;;;;;;;4206247;34;20162;-56
2021/01/30 11:55:42;;;;;;;8.73;6.93;;;;;;;;;;4206477;34;20213;-58
2021/01/30 11:58:17;;;;;;;6.15;5.57;;;;;;;;;;4206183;34;20141;-57
2021/01/30 12:00:45;;;;;;;5.37;4.60;;;;;;;;;;4205744;34;20110;-57
2021/01/30 12:03:28;;;;;;;5.40;4.90;;;;;;;;;;4206400;34;20129;-57
2021/01/30 12:05:54;;;;;;;4.78;3.95;;;;;;;;;;4193481;34;20586;-57
2021/01/30 12:08:20;;;;;;;4.85;4.30;;;;;;;;;;4206240;34;20110;-57
2021/01/30 12:10:46;;;;;;;6.40;5.43;;;;;;;;;;4206119;34;20204;-58
2021/01/30 12:13:12;;;;;;;7.30;5.95;;;;;;;;;;4206440;34;20511;-57
2021/01/30 12:15:38;;;;;;;5.60;4.72;;;;;;;;;;4206093;34;20109;-57
2021/01/30 12:18:11;;;;;;;6.20;4.97;;;;;;;;;;4206137;34;20470;-58
2021/01/30 12:20:37;;;;;;;8.10;6.85;;;;;;;;;;4206263;34;20133;-58
2021/01/30 12:23:03;;;;;;;7.35;6.65;;;;;;;;;;4193067;34;20451;-58
2021/01/30 12:25:30;;;;;;;9.27;7.55;;;;;;;;;;4205914;34;20227;-57
2021/01/30 12:28:00;;;;;;;9.55;7.65;;;;;;;;;;4206229;34;20120;-58
2021/01/30 12:30:28;;;;;;;9.48;6.80;;;;;;;;;;4205948;34;20285;-58
2021/01/30 12:32:57;;;;;;;8.48;7.43;;;;;;;;;;4205720;34;20180;-57
2021/01/30 12:35:25;;;;;;;9.82;7.60;;;;;;;;;;4205809;34;20113;-57
2021/01/30 12:37:51;;;;;;;9.80;6.90;;;;;;;;;;4205856;34;20185;-57
2021/01/30 12:40:18;;;;;;;9.13;7.72;;;;;;;;;;4205784;34;20110;-55
2021/01/30 12:42:43;;;;;;;9.45;7.12;;;;;;;;;;4205165;34;20118;-55
2021/01/30 12:45:10;;;;;;;7.72;5.45;;;;;;;;;;4193024;34;20466;-56
2021/01/30 12:47:36;;;;;;;6.70;5.93;;;;;;;;;;4205800;34;20110;-56
2021/01/30 12:50:02;;;;;;;10.40;6.22;;;;;;;;;;4205833;34;20449;-55
2021/01/30 12:52:28;;;;;;;5.90;5.30;;;;;;;;;;4205669;34;20101;-56
2021/01/30 12:54:54;;;;;;;6.57;5.32;;;;;;;;;;4205666;34;20094;-56
2021/01/30 12:57:20;;;;;;;8.38;6.32;;;;;;;;;;4205787;34;20137;-56
2021/01/30 12:59:46;;;;;;;7.45;5.87;;;;;;;;;;4205622;34;20125;-56
2021/01/30 13:02:12;;;;;;;5.22;4.65;;;;;;;;;;4205723;34;20110;-57
2021/01/30 13:04:38;;;;;;;9.73;6.60;;;;;;;;;;4205690;34;20125;-57
2021/01/30 13:07:04;;;;;;;8.73;7.12;;;;;;;;;;4205629;34;20125;-57
2021/01/30 13:09:30;;;;;;;9.88;6.55;;;;;;;;;;4205821;34;20124;-57
2021/01/30 13:11:56;;;;;;;8.60;6.37;;;;;;;;;;4205912;34;20120;-57
2021/01/30 13:14:22;;;;;;;9.02;7.62;;;;;;;;;;4205637;34;20494;-57
2021/01/30 13:16:48;;;;;;;10.48;8.98;;;;;;;;;;4205495;34;20117;-57
2021/01/30 13:19:14;;;;;;;11.40;8.60;;;;;;;;;;4205822;34;20485;-58
2021/01/30 13:21:45;;;;;;;8.13;7.18;;;;;;;;;;4205490;34;20134;-56
2021/01/30 13:24:11;;;;;;;7.87;7.05;;;;;;;;;;4205511;34;20133;-56
2021/01/30 13:26:40;;;;;;;6.53;5.82;;;;;;;;;;4205642;34;20229;-57
2021/01/30 13:29:14;;;;;;;7.57;6.28;;;;;;;;;;4205663;34;20442;-56
2021/01/30 13:31:42;;;;;;;9.48;7.10;;;;;;;;;;4205511;34;20145;-56
2021/01/30 13:34:08;;;;;;;8.13;7.32;;;;;;;;;;4205416;34;20102;-56
2021/01/30 13:36:34;;;;;;;9.40;6.75;;;;;;;;;;4205388;34;20225;-56
2021/01/30 13:39:01;;;;;;;6.68;5.53;;;;;;;;;;4205647;34;20470;-56
2021/01/30 13:41:27;;;;;;;6.30;5.40;;;;;;;;;;4205325;34;20189;-56
2021/01/30 13:43:53;;;;;;;6.82;5.90;;;;;;;;;;4205689;34;20113;-56
2021/01/30 13:46:19;;;;;;;6.75;5.90;;;;;;;;;;4192801;34;20415;-56
2021/01/30 13:48:45;;;;;;;7.00;5.95;;;;;;;;;;4205510;34;20124;-56
2021/01/30 13:51:11;;;;;;;8.02;6.37;;;;;;;;;;4205278;34;20613;-56
2021/01/30 13:53:37;;;;;;;7.60;6.78;;;;;;;;;;4204920;34;20136;-56
2021/01/30 13:56:03;;;;;;;11.63;6.80;;;;;;;;;;4205217;34;20102;-56
2021/01/30 13:58:29;;;;;;;9.57;8.20;;;;;;;;;;4205094;34;20113;-56
2021/01/30 14:00:55;;;;;;;8.60;7.70;;;;;;;;;;4205188;34;20221;-56
2021/01/30 14:03:21;;;;;;;5.78;4.80;;;;;;;;;;4205209;34;20541;-57
2021/01/30 14:05:47;;;;;;;5.72;4.87;;;;;;;;;;4205000;34;20197;-57
2021/01/30 14:08:12;;;;;;;5.80;4.85;;;;;;;;;;4205245;34;20137;-56
2021/01/30 14:10:38;;;;;;;6.37;5.78;;;;;;;;;;4205129;34;20217;-56
2021/01/30 14:13:04;;;;;;;6.10;5.40;;;;;;;;;;4205173;34;20094;-56
2021/01/30 14:15:30;;;;;;;6.30;4.68;;;;;;;;;;4205093;34;20200;-56
2021/01/30 14:17:58;;;;;;;6.65;4.53;;;;;;;;;;4205046;34;20517;-57
2021/01/30 14:20:24;;;;;;;4.93;4.05;;;;;;;;;;4205043;34;20114;-57
2021/01/30 14:22:51;;;;;;;5.60;4.57;;;;;;;;;;4205019;34;20118;-57
2021/01/30 14:25:17;;;;;;;6.65;5.95;;;;;;;;;;4205006;34;20524;-56
2021/01/30 14:27:43;;;;;;;5.68;4.60;;;;;;;;;;4204840;34;20113;-56
2021/01/30 14:30:09;;;;;;;5.37;4.57;;;;;;;;;;4192034;34;20189;-56
2021/01/30 14:32:35;;;;;;;5.70;4.80;;;;;;;;;;4204890;34;20095;-56
2021/01/30 14:35:02;;;;;;;9.95;8.02;;;;;;;;;;4204767;34;20618;-56
2021/01/30 14:37:28;;;;;;;12.13;10.60;;;;;;;;;;4204974;34;20462;-56
2021/01/30 14:39:54;;;;;;;10.02;8.10;;;;;;;;;;4204832;34;20174;-56
2021/01/30 14:42:20;;;;;;;6.00;5.05;;;;;;;;;;4204968;34;20134;-56
2021/01/30 14:44:47;;;;;;;8.15;4.47;;;;;;;;;;4205094;34;20116;-56
2021/01/30 14:47:13;;;;;;;7.53;4.90;;;;;;;;;;4204732;34;20109;-56
2021/01/30 14:49:39;;;;;;;10.02;5.05;;;;;;;;;;4192008;34;20133;-57
2021/01/30 14:52:05;;;;;;;10.32;5.37;;;;;;;;;;4205175;34;20221;-59
2021/01/30 14:54:31;;;;;;;9.05;5.47;;;;;;;;;;4204436;34;20118;-57
2021/01/30 14:56:57;;;;;;;10.00;4.72;;;;;;;;;;4180840;34;20109;-56
2021/01/30 14:59:23;;;;;;;9.13;5.80;;;;;;;;;;4204775;34;20109;-57
2021/01/30 15:01:49;;;;;;;8.10;4.70;;;;;;;;;;4204579;34;20113;-57
2021/01/30 15:04:15;;;;;;;6.57;5.15;;;;;;;;;;4204062;34;20132;-56
2021/01/30 15:06:41;;;;;;;6.97;4.50;;;;;;;;;;4204433;34;20244;-57
2021/01/30 15:09:07;;;;;;;10.38;5.75;;;;;;;;;;4191965;34;20109;-57
2021/01/30 15:11:32;;;;;;;8.65;5.10;;;;;;;;;;4204462;34;20136;-56